createdAt,value
2023-04-16T00:02:16.718Z,7.25
2023-04-16T00:04:43.955Z,6.00
2023-04-16T00:07:11.146Z,7.15
2023-04-16T00:09:38.316Z,10.65
2023-04-16T00:12:06.386Z,6.70
2023-04-16T00:14:33.636Z,7.57
2023-04-16T00:17:01.138Z,10.75
2023-04-16T00:19:28.255Z,9.82
2023-04-16T00:21:55.664Z,11.00
2023-04-16T00:24:23.033Z,10.25
2023-04-16T00:26:50.030Z,8.88
2023-04-16T00:29:17.045Z,8.07
2023-04-16T00:31:44.167Z,6.72
2023-04-16T00:34:11.347Z,8.98
2023-04-16T00:36:38.793Z,8.43
2023-04-16T00:39:05.899Z,8.27
2023-04-16T00:41:33.004Z,9.80
2023-04-16T00:44:00.177Z,7.82
2023-04-16T00:46:27.935Z,9.10
2023-04-16T00:48:56.461Z,12.32
2023-04-16T00:51:23.990Z,7.57
2023-04-16T00:53:51.248Z,7.45
2023-04-16T00:56:18.628Z,13.20
2023-04-16T00:58:45.775Z,12.88
2023-04-16T01:01:14.700Z,12.70
2023-04-16T01:03:47.431Z,12.88
2023-04-16T01:06:16.026Z,14.50
2023-04-16T01:08:43.403Z,12.07
2023-04-16T01:11:11.374Z,14.73
2023-04-16T01:13:41.552Z,13.98
2023-04-16T01:16:10.045Z,13.32
2023-04-16T01:18:37.809Z,12.52
2023-04-16T01:21:05.583Z,15.93
2023-04-16T01:23:33.550Z,21.55
2023-04-16T01:26:01.143Z,16.70
2023-04-16T01:28:28.231Z,11.23
2023-04-16T01:30:55.579Z,8.40
2023-04-16T01:33:36.057Z,11.18
2023-04-16T01:36:03.343Z,9.75
2023-04-16T01:38:30.533Z,13.43
2023-04-16T01:40:59.590Z,12.88
2023-04-16T01:43:26.880Z,13.45
2023-04-16T01:46:19.622Z,11.15
2023-04-16T01:48:47.611Z,10.10
2023-04-16T01:51:14.815Z,11.38
2023-04-16T01:53:41.919Z,12.60
2023-04-16T01:56:09.109Z,10.80
2023-04-16T01:58:36.266Z,12.00
2023-04-16T02:01:04.626Z,14.73
2023-04-16T02:03:32.721Z,12.73
2023-04-16T02:06:01.330Z,19.95
2023-04-16T02:08:29.340Z,15.15
2023-04-16T02:10:57.722Z,12.95
2023-04-16T02:13:26.329Z,17.25
2023-04-16T02:15:53.857Z,18.88
2023-04-16T02:18:50.485Z,8.52
2023-04-16T02:21:20.431Z,17.60
2023-04-16T02:23:51.815Z,11.02
2023-04-16T02:26:23.635Z,9.80
2023-04-16T02:28:51.246Z,8.80
2023-04-16T02:33:49.848Z,11.85
2023-04-16T02:36:17.069Z,15.30
2023-04-16T02:38:44.241Z,10.45
2023-04-16T02:41:11.554Z,8.32
2023-04-16T02:43:38.606Z,11.60
2023-04-16T02:46:06.168Z,10.48
2023-04-16T02:48:33.406Z,9.05
2023-04-16T02:51:00.911Z,12.30
2023-04-16T02:53:28.088Z,9.40
2023-04-16T02:55:56.052Z,6.53
2023-04-16T02:58:25.129Z,6.57
2023-04-16T03:00:53.877Z,10.02
2023-04-16T03:03:21.545Z,9.13
2023-04-16T03:05:48.800Z,12.25
2023-04-16T03:08:17.196Z,7.60
2023-04-16T03:10:44.676Z,7.85
2023-04-16T03:13:12.223Z,9.68
2023-04-16T03:15:39.293Z,7.65
2023-04-16T03:18:06.608Z,8.13
2023-04-16T03:20:34.004Z,9.80
2023-04-16T03:23:01.450Z,8.73
2023-04-16T03:25:28.506Z,8.65
2023-04-16T03:27:56.836Z,8.25
2023-04-16T03:30:24.435Z,6.97
2023-04-16T03:32:52.198Z,10.25
2023-04-16T03:35:19.672Z,9.40
2023-04-16T03:37:46.792Z,10.57
2023-04-16T03:40:14.192Z,8.63
2023-04-16T03:42:41.802Z,10.50
2023-04-16T03:45:09.649Z,8.00
2023-04-16T03:47:38.274Z,8.68
2023-04-16T03:50:05.805Z,10.23
2023-04-16T03:52:32.953Z,12.15
2023-04-16T03:54:59.997Z,12.15
2023-04-16T03:57:33.315Z,12.27
2023-04-16T04:00:06.986Z,8.55
2023-04-16T04:02:57.267Z,6.63
2023-04-16T04:05:24.780Z,10.38
2023-04-16T04:07:52.669Z,13.25
2023-04-16T04:10:19.891Z,14.70
2023-04-16T04:12:47.332Z,9.50
2023-04-16T04:15:14.536Z,10.18
2023-04-16T04:17:43.063Z,14.10
2023-04-16T04:20:11.036Z,12.48
2023-04-16T04:22:38.220Z,11.60
2023-04-16T04:25:05.749Z,9.40
2023-04-16T04:27:33.478Z,13.95
2023-04-16T04:30:00.598Z,9.02
2023-04-16T04:32:28.185Z,8.60
2023-04-16T04:34:55.273Z,8.57
2023-04-16T04:37:22.593Z,13.15
2023-04-16T04:39:49.618Z,8.82
2023-04-16T04:42:18.829Z,8.48
2023-04-16T04:44:46.262Z,10.50
2023-04-16T04:47:14.966Z,9.25
2023-04-16T04:49:42.154Z,9.40
2023-04-16T04:52:09.474Z,10.75
2023-04-16T04:54:37.026Z,9.15
2023-04-16T04:57:05.512Z,8.32
2023-04-16T04:59:33.008Z,6.72
2023-04-16T05:02:00.793Z,7.50
2023-04-16T05:04:27.822Z,10.20
2023-04-16T05:06:55.299Z,6.15
2023-04-16T05:09:22.586Z,6.18
2023-04-16T05:11:49.774Z,7.43
2023-04-16T05:14:17.182Z,7.55
2023-04-16T05:16:44.491Z,5.97
2023-04-16T05:19:12.023Z,7.57
2023-04-16T05:21:39.372Z,11.35
2023-04-16T05:24:06.845Z,7.55
2023-04-16T05:26:33.939Z,7.82
2023-04-16T05:29:01.216Z,6.00
2023-04-16T05:31:28.580Z,8.77
2023-04-16T05:33:55.752Z,5.30
2023-04-16T05:36:23.090Z,8.43
2023-04-16T05:38:50.284Z,6.90
2023-04-16T05:41:17.476Z,7.55
2023-04-16T05:43:49.033Z,6.22
2023-04-16T05:46:16.239Z,6.18
2023-04-16T05:48:43.784Z,8.32
2023-04-16T05:51:11.234Z,8.23
2023-04-16T05:53:38.530Z,5.22
2023-04-16T05:56:06.062Z,10.07
2023-04-16T05:58:34.085Z,6.88
2023-04-16T06:01:01.602Z,8.10
2023-04-16T06:03:28.971Z,5.68
2023-04-16T06:05:56.130Z,6.88
2023-04-16T06:08:25.052Z,5.20
2023-04-16T06:10:52.233Z,10.05
2023-04-16T06:13:22.161Z,10.00
2023-04-16T06:15:49.502Z,6.30
2023-04-16T06:18:16.502Z,5.65
2023-04-16T06:20:43.762Z,6.40
2023-04-16T06:23:11.075Z,7.43
2023-04-16T06:25:38.265Z,6.30
2023-04-16T06:28:05.791Z,6.57
2023-04-16T06:30:33.497Z,7.35
2023-04-16T06:33:01.124Z,5.93
2023-04-16T06:35:28.429Z,4.90
2023-04-16T06:37:55.741Z,5.30
2023-04-16T06:40:23.016Z,5.97
2023-04-16T06:42:50.591Z,7.90
2023-04-16T06:45:18.124Z,8.07
2023-04-16T06:47:45.257Z,5.20
2023-04-16T06:50:12.439Z,4.45
2023-04-16T06:52:39.597Z,19.98
2023-04-16T06:55:09.765Z,7.80
2023-04-16T06:57:37.754Z,8.18
2023-04-16T07:00:05.554Z,6.32
2023-04-16T07:02:32.981Z,7.28
2023-04-16T07:05:00.712Z,8.82
2023-04-16T07:07:27.798Z,5.80
2023-04-16T07:09:54.912Z,4.78
2023-04-16T07:12:22.952Z,6.60
2023-04-16T07:14:51.189Z,8.88
2023-04-16T07:17:18.328Z,7.10
2023-04-16T07:19:45.670Z,9.73
2023-04-16T07:22:12.817Z,10.00
2023-04-16T07:24:39.983Z,9.18
2023-04-16T07:27:07.123Z,4.82
2023-04-16T07:29:37.372Z,5.75
2023-04-16T07:32:05.597Z,4.85
2023-04-16T07:34:32.712Z,4.43
2023-04-16T07:36:59.883Z,4.60
2023-04-16T07:39:27.028Z,4.60
2023-04-16T07:41:54.118Z,3.85
2023-04-16T07:44:25.660Z,5.15
2023-04-16T07:46:55.761Z,6.15
2023-04-16T07:49:23.998Z,5.90
2023-04-16T07:51:51.056Z,8.52
2023-04-16T07:54:21.046Z,4.47
2023-04-16T07:56:51.037Z,5.75
2023-04-16T07:59:22.817Z,7.93
2023-04-16T08:01:52.634Z,8.20
2023-04-16T08:04:26.581Z,7.63
2023-04-16T08:06:54.657Z,5.28
2023-04-16T08:09:24.084Z,5.90
2023-04-16T08:14:53.537Z,14.60
2023-04-16T08:17:20.709Z,5.68
2023-04-16T08:19:48.002Z,7.30
2023-04-16T08:22:15.186Z,4.45
2023-04-16T08:24:42.426Z,5.63
2023-04-16T08:27:18.421Z,5.95
2023-04-16T08:29:52.593Z,4.85
2023-04-16T08:32:19.911Z,7.82
2023-04-16T08:34:47.090Z,6.18
2023-04-16T08:37:14.302Z,6.13
2023-04-16T08:39:41.592Z,6.38
2023-04-16T08:42:18.234Z,8.45
2023-04-16T08:44:49.475Z,5.47
2023-04-16T08:47:16.852Z,5.80
2023-04-16T08:49:46.224Z,6.68
2023-04-16T08:52:20.469Z,6.65
2023-04-16T08:55:02.711Z,5.57
2023-04-16T08:57:41.064Z,6.32
2023-04-16T09:00:09.759Z,4.65
2023-04-16T09:02:37.507Z,7.75
2023-04-16T09:05:07.728Z,4.32
2023-04-16T09:07:35.645Z,5.40
2023-04-16T09:10:03.783Z,5.10
2023-04-16T09:12:33.432Z,5.15
2023-04-16T09:15:03.549Z,2.87
2023-04-16T09:17:34.996Z,9.60
2023-04-16T09:20:04.917Z,7.57
2023-04-16T09:22:32.835Z,6.25
2023-04-16T09:24:59.951Z,7.90
2023-04-16T09:27:42.082Z,6.03
2023-04-16T09:30:41.274Z,3.70
2023-04-16T09:33:22.933Z,6.53
2023-04-16T09:35:52.928Z,5.80
2023-04-16T09:38:20.774Z,6.82
2023-04-16T09:40:48.012Z,3.92
2023-04-16T09:43:17.991Z,7.05
2023-04-16T09:45:50.272Z,5.20
2023-04-16T09:48:29.358Z,5.95
2023-04-16T09:50:57.241Z,5.47
2023-04-16T09:53:29.215Z,6.10
2023-04-16T09:56:02.393Z,4.65
2023-04-16T09:58:29.863Z,4.68
2023-04-16T10:01:11.505Z,6.32
2023-04-16T10:03:40.696Z,6.35
2023-04-16T10:06:15.309Z,5.05
2023-04-16T10:08:53.498Z,6.68
2023-04-16T10:11:49.684Z,3.53
2023-04-16T10:14:23.114Z,4.57
2023-04-16T10:17:21.566Z,7.15
2023-04-16T10:20:07.003Z,5.38
2023-04-16T10:22:49.198Z,4.22
2023-04-16T10:25:37.810Z,11.13
2023-04-16T10:28:08.023Z,4.45
2023-04-16T10:30:55.519Z,5.22
2023-04-16T10:33:34.440Z,3.30
2023-04-16T10:36:31.686Z,6.78
2023-04-16T10:39:17.150Z,6.93
2023-04-16T10:41:47.947Z,4.65
2023-04-16T10:44:30.241Z,7.45
2023-04-16T10:47:01.025Z,4.32
2023-04-16T10:49:28.368Z,7.32
2023-04-16T10:52:17.559Z,6.15
2023-04-16T10:54:52.690Z,6.38
2023-04-16T10:57:25.395Z,6.10
2023-04-16T11:02:29.297Z,8.80
2023-04-16T11:04:58.153Z,5.05
2023-04-16T11:07:35.362Z,3.50
2023-04-16T11:10:13.492Z,4.72
2023-04-16T11:12:46.050Z,5.03
2023-04-16T11:15:20.073Z,6.35
2023-04-16T11:17:52.290Z,5.25
2023-04-16T11:20:21.038Z,8.07
2023-04-16T11:22:50.827Z,4.13
2023-04-16T11:25:26.523Z,7.72
2023-04-16T11:27:54.995Z,6.78
2023-04-16T11:30:49.031Z,3.92
2023-04-16T11:33:16.714Z,4.85
2023-04-16T11:35:46.050Z,5.28
2023-04-16T11:38:13.293Z,4.47
2023-04-16T11:40:43.085Z,4.55
2023-04-16T11:45:56.623Z,4.38
2023-04-16T11:48:23.829Z,5.85
2023-04-16T11:50:58.152Z,5.10
2023-04-16T11:53:25.382Z,4.35
2023-04-16T11:55:52.478Z,5.47
2023-04-16T11:58:20.397Z,3.85
2023-04-16T12:00:53.484Z,7.07
2023-04-16T12:03:38.442Z,6.93
2023-04-16T12:06:09.926Z,5.80
2023-04-16T12:08:37.324Z,3.75
2023-04-16T12:11:04.818Z,5.35
2023-04-16T12:13:39.882Z,4.68
2023-04-16T12:16:18.607Z,4.20
2023-04-16T12:19:04.142Z,5.55
2023-04-16T12:21:43.066Z,6.47
2023-04-16T12:24:13.712Z,3.90
2023-04-16T12:26:46.656Z,4.18
2023-04-16T12:29:22.391Z,5.72
2023-04-16T12:31:50.977Z,6.88
2023-04-16T12:34:20.054Z,5.15
2023-04-16T12:36:48.705Z,3.42
2023-04-16T12:39:16.349Z,7.13
2023-04-16T12:41:44.679Z,5.43
2023-04-16T12:44:16.708Z,3.50
2023-04-16T12:46:45.207Z,5.47
2023-04-16T12:49:12.751Z,4.45
2023-04-16T12:51:40.190Z,7.63
2023-04-16T12:54:07.716Z,6.38
2023-04-16T12:59:47.212Z,5.82
2023-04-16T13:02:14.367Z,7.55
2023-04-16T13:04:41.599Z,8.63
2023-04-16T13:07:08.818Z,4.43
2023-04-16T13:09:37.760Z,4.43
2023-04-16T13:12:06.780Z,4.72
2023-04-16T13:14:33.909Z,5.80
2023-04-16T13:17:01.465Z,7.03
2023-04-16T13:19:28.782Z,5.97
2023-04-16T13:21:56.048Z,6.70
2023-04-16T13:24:23.848Z,4.63
2023-04-16T13:26:53.865Z,4.55
2023-04-16T13:29:20.971Z,4.65
2023-04-16T13:31:48.533Z,4.75
2023-04-16T13:34:20.445Z,5.43
2023-04-16T13:36:47.927Z,5.38
2023-04-16T13:39:15.814Z,7.18
2023-04-16T13:41:43.468Z,4.97
2023-04-16T13:44:10.675Z,5.63
2023-04-16T13:46:37.721Z,4.82
2023-04-16T13:49:04.948Z,5.72
2023-04-16T13:51:32.227Z,9.73
2023-04-16T13:53:59.509Z,6.50
2023-04-16T13:56:26.860Z,6.95
2023-04-16T13:58:54.290Z,8.85
2023-04-16T14:01:21.909Z,21.33
2023-04-16T14:03:49.771Z,5.03
2023-04-16T14:06:18.238Z,7.13
2023-04-16T14:08:46.017Z,7.55
2023-04-16T14:11:13.164Z,6.75
2023-04-16T14:13:40.621Z,6.00
2023-04-16T14:16:07.894Z,5.85
2023-04-16T14:18:35.911Z,4.68
2023-04-16T14:21:03.136Z,6.65
2023-04-16T14:23:30.350Z,4.93
2023-04-16T14:25:57.627Z,5.20
2023-04-16T14:28:25.122Z,6.07
2023-04-16T14:30:52.524Z,6.70
2023-04-16T14:33:19.874Z,9.10
2023-04-16T14:35:47.048Z,5.82
2023-04-16T14:38:14.339Z,5.97
2023-04-16T14:40:41.664Z,8.15
2023-04-16T14:43:08.845Z,12.68
2023-04-16T14:45:39.235Z,8.75
2023-04-16T14:48:06.932Z,6.72
2023-04-16T14:50:38.233Z,6.85
2023-04-16T14:53:06.059Z,7.55
2023-04-16T14:55:33.283Z,7.72
2023-04-16T14:58:00.672Z,4.95
2023-04-16T15:00:28.238Z,6.63
2023-04-16T15:02:55.846Z,7.65
2023-04-16T15:05:29.272Z,5.35
2023-04-16T15:08:00.694Z,6.78
2023-04-16T15:10:28.660Z,6.25
2023-04-16T15:12:55.894Z,6.28
2023-04-16T15:15:22.934Z,4.10
2023-04-16T15:17:51.223Z,8.35
2023-04-16T15:20:18.775Z,8.73
2023-04-16T15:22:46.373Z,17.50
2023-04-16T15:25:14.615Z,6.50
2023-04-16T15:27:41.795Z,9.25
2023-04-16T15:30:09.456Z,5.43
2023-04-16T15:32:36.888Z,7.72
2023-04-16T15:35:05.092Z,6.57
2023-04-16T15:37:32.248Z,5.07
2023-04-16T15:39:59.482Z,5.22
2023-04-16T15:42:26.735Z,7.32
2023-04-16T15:44:53.905Z,7.85
2023-04-16T15:47:21.080Z,6.05
2023-04-16T15:49:48.255Z,12.50
2023-04-16T15:52:18.670Z,13.07
2023-04-16T15:57:12.949Z,15.77
2023-04-16T15:59:40.066Z,13.55
2023-04-16T16:02:09.490Z,12.40
2023-04-16T16:04:36.753Z,12.77
2023-04-16T16:07:04.721Z,9.00
2023-04-16T16:09:31.951Z,12.43
2023-04-16T16:11:59.914Z,8.85
2023-04-16T16:14:27.092Z,13.25
2023-04-16T16:16:54.745Z,9.15
2023-04-16T16:19:24.309Z,6.40
2023-04-16T16:21:51.522Z,7.50
2023-04-16T16:24:18.685Z,6.18
2023-04-16T16:26:45.806Z,7.35
2023-04-16T16:29:13.304Z,10.40
2023-04-16T16:31:40.553Z,9.40
2023-04-16T16:34:07.901Z,8.57
2023-04-16T16:36:37.873Z,8.48
2023-04-16T16:39:05.112Z,7.82
2023-04-16T16:41:32.557Z,8.23
2023-04-16T16:43:59.932Z,8.15
2023-04-16T16:46:27.170Z,10.15
2023-04-16T16:48:54.600Z,8.45
2023-04-16T16:51:21.726Z,8.82
2023-04-16T16:53:48.923Z,6.38
2023-04-16T16:56:16.220Z,11.60
2023-04-16T16:58:43.601Z,10.63
2023-04-16T17:01:10.730Z,10.70
2023-04-16T17:03:37.815Z,10.43
2023-04-16T17:06:11.174Z,10.80
2023-04-16T17:08:38.531Z,10.13
2023-04-16T17:11:05.738Z,7.68
2023-04-16T17:13:32.920Z,5.65
2023-04-16T17:16:00.174Z,9.98
2023-04-16T17:18:28.137Z,8.68
2023-04-16T17:20:55.203Z,8.60
2023-04-16T17:23:25.153Z,11.48
2023-04-16T17:25:52.612Z,9.30
2023-04-16T17:28:21.013Z,10.38
2023-04-16T17:30:56.769Z,16.75
2023-04-16T17:33:50.878Z,21.55
2023-04-16T17:36:19.896Z,15.15
2023-04-16T17:38:46.924Z,15.43
2023-04-16T17:41:14.122Z,16.30
2023-04-16T17:43:41.311Z,12.43
2023-04-16T17:46:11.878Z,12.85
2023-04-16T17:48:38.972Z,13.30
2023-04-16T17:51:11.940Z,22.50
2023-04-16T17:53:39.336Z,8.90
2023-04-16T17:56:06.915Z,13.60
2023-04-16T17:58:35.403Z,11.55
2023-04-16T18:01:03.577Z,11.10
2023-04-16T18:03:32.156Z,8.70
2023-04-16T18:05:59.788Z,11.38
2023-04-16T18:08:27.786Z,9.27
2023-04-16T18:10:55.710Z,8.88
2023-04-16T18:13:24.313Z,10.52
2023-04-16T18:15:51.985Z,12.73
2023-04-16T18:18:20.732Z,11.23
2023-04-16T18:20:48.273Z,11.30
2023-04-16T18:23:15.364Z,11.45
2023-04-16T18:25:42.517Z,11.80
2023-04-16T18:28:09.631Z,12.05
2023-04-16T18:30:40.466Z,11.07
2023-04-16T18:35:57.505Z,11.48
2023-04-16T18:39:02.758Z,12.93
2023-04-16T18:41:27.462Z,14.13
2023-04-16T18:43:54.695Z,18.85
2023-04-16T18:46:22.107Z,13.05
2023-04-16T18:48:49.566Z,13.52
2023-04-16T18:51:16.973Z,14.43
2023-04-16T18:53:45.929Z,18.00
2023-04-16T18:56:13.168Z,14.55
2023-04-16T18:58:40.551Z,17.85
2023-04-16T19:01:11.449Z,16.80
2023-04-16T19:03:39.453Z,14.20
2023-04-16T19:06:07.154Z,14.98
2023-04-16T19:08:37.597Z,14.82
2023-04-16T19:13:32.543Z,11.95
2023-04-16T19:16:01.207Z,14.82
2023-04-16T19:18:28.473Z,12.38
2023-04-16T19:21:00.680Z,10.68
2023-04-16T19:23:29.242Z,15.18
2023-04-16T19:25:57.079Z,12.73
2023-04-16T19:28:25.939Z,12.27
2023-04-16T19:30:54.045Z,17.90
2023-04-16T19:33:21.540Z,10.13
2023-04-16T19:35:49.089Z,12.40
2023-04-16T19:38:18.150Z,9.85
2023-04-16T19:41:12.267Z,9.65
2023-04-16T19:43:39.307Z,16.25
2023-04-16T19:46:06.697Z,12.20
2023-04-16T19:48:34.079Z,14.40
2023-04-16T19:51:03.707Z,17.50
2023-04-16T19:53:30.722Z,12.73
2023-04-16T19:55:57.901Z,10.57
2023-04-16T19:58:25.494Z,9.60
2023-04-16T20:00:56.599Z,14.45
2023-04-16T20:03:23.910Z,9.90
2023-04-16T20:05:51.216Z,12.40
2023-04-16T20:08:18.315Z,12.15
2023-04-16T20:10:45.605Z,14.23
2023-04-16T20:13:13.857Z,15.93
2023-04-16T20:15:41.213Z,13.05
2023-04-16T20:18:09.059Z,16.17
2023-04-16T20:20:37.964Z,12.00
2023-04-16T20:23:14.772Z,17.50
2023-04-16T20:25:49.140Z,13.80
2023-04-16T20:28:18.276Z,15.30
2023-04-16T20:30:45.395Z,13.02
2023-04-16T20:33:12.813Z,14.82
2023-04-16T20:35:40.123Z,16.50
2023-04-16T20:38:07.191Z,10.75
2023-04-16T20:40:38.841Z,12.75
2023-04-16T20:43:10.332Z,17.02
2023-04-16T20:45:41.199Z,19.17
2023-04-16T20:48:10.250Z,16.20
2023-04-16T20:50:38.019Z,14.20
2023-04-16T20:53:05.123Z,14.93
2023-04-16T20:55:32.284Z,16.08
2023-04-16T20:57:59.467Z,14.65
2023-04-16T21:00:27.257Z,14.98
2023-04-16T21:02:54.978Z,15.43
2023-04-16T21:05:24.041Z,11.07
2023-04-16T21:07:52.365Z,10.43
2023-04-16T21:10:20.887Z,11.38
2023-04-16T21:12:49.632Z,17.80
2023-04-16T21:15:16.872Z,15.98
2023-04-16T21:17:43.952Z,11.88
2023-04-16T21:20:13.654Z,12.23
2023-04-16T21:22:41.215Z,14.43
2023-04-16T21:25:08.953Z,13.48
2023-04-16T21:27:38.340Z,34.05
2023-04-16T21:30:05.990Z,13.53
2023-04-16T21:32:33.448Z,11.43
2023-04-16T21:35:01.070Z,15.60
2023-04-16T21:37:28.408Z,14.25
2023-04-16T21:39:55.740Z,11.48
2023-04-16T21:42:22.914Z,13.63
2023-04-16T21:44:50.310Z,14.25
2023-04-16T21:47:19.473Z,35.80
2023-04-16T21:49:46.701Z,22.90
2023-04-16T21:52:18.514Z,9.35
2023-04-16T21:54:46.185Z,13.15
2023-04-16T21:57:13.845Z,19.55
2023-04-16T21:59:41.246Z,13.23
2023-04-16T22:02:08.546Z,11.60
2023-04-16T22:04:39.528Z,13.40
2023-04-16T22:07:11.925Z,10.70
2023-04-16T22:09:40.556Z,12.80
2023-04-16T22:12:10.633Z,13.75
2023-04-16T22:14:44.047Z,13.82
2023-04-16T22:17:17.359Z,13.45
2023-04-16T22:19:44.851Z,11.10
2023-04-16T22:22:12.208Z,10.05
2023-04-16T22:24:39.403Z,11.88
2023-04-16T22:27:06.909Z,10.25
2023-04-16T22:29:34.223Z,10.45
2023-04-16T22:32:02.104Z,7.57
2023-04-16T22:34:29.402Z,13.05
2023-04-16T22:36:56.535Z,11.63
2023-04-16T22:39:23.677Z,12.38
2023-04-16T22:41:50.769Z,11.65
2023-04-16T22:44:17.892Z,11.32
2023-04-16T22:46:45.114Z,11.82
2023-04-16T22:49:12.374Z,10.60
2023-04-16T22:51:40.448Z,12.90
2023-04-16T22:54:08.081Z,11.25
2023-04-16T22:56:35.346Z,10.25
2023-04-16T22:59:02.450Z,13.23
2023-04-16T23:01:29.618Z,10.48
2023-04-16T23:03:56.904Z,10.40
2023-04-16T23:06:24.232Z,14.00
2023-04-16T23:08:51.440Z,8.35
2023-04-16T23:11:18.475Z,15.02
2023-04-16T23:13:45.849Z,13.73
2023-04-16T23:16:16.234Z,12.30
2023-04-16T23:18:43.442Z,13.40
2023-04-16T23:21:10.708Z,12.85
2023-04-16T23:23:37.749Z,14.07
2023-04-16T23:26:05.213Z,13.07
2023-04-16T23:28:32.400Z,12.13
2023-04-16T23:30:59.638Z,17.92
2023-04-16T23:33:27.382Z,14.02
2023-04-16T23:35:54.593Z,15.23
2023-04-16T23:38:22.029Z,15.95
2023-04-16T23:40:49.236Z,15.10
2023-04-16T23:43:16.992Z,14.95
2023-04-16T23:45:44.314Z,13.27
2023-04-16T23:48:11.781Z,16.55
2023-04-16T23:50:38.950Z,15.60
2023-04-16T23:53:06.525Z,14.68
2023-04-16T23:55:33.607Z,14.15
2023-04-16T23:58:00.732Z,21.95
